createdAt,value
2023-02-17T00:00:01.342Z,8.2
2023-02-17T00:03:01.232Z,8.2
2023-02-17T00:06:01.098Z,8.2
2023-02-17T00:09:01.072Z,8.3
2023-02-17T00:12:01.142Z,8.3
2023-02-17T00:15:01.181Z,8.3
2023-02-17T00:18:01.348Z,8.3
2023-02-17T00:21:01.127Z,8.3
2023-02-17T00:24:01.130Z,8.3
2023-02-17T00:27:01.129Z,8.3
2023-02-17T00:30:01.220Z,8.3
2023-02-17T00:33:01.145Z,8.3
2023-02-17T00:36:01.116Z,8.3
2023-02-17T00:39:01.086Z,8.3
2023-02-17T00:42:01.066Z,8.3
2023-02-17T00:45:01.133Z,8.3
2023-02-17T00:48:01.123Z,8.3
2023-02-17T00:51:01.134Z,8.3
2023-02-17T00:54:01.195Z,8.3
2023-02-17T00:57:01.052Z,8.3
2023-02-17T01:00:01.132Z,8.3
2023-02-17T01:03:01.130Z,8.3
2023-02-17T01:06:01.164Z,8.3
2023-02-17T01:09:01.135Z,8.3
2023-02-17T01:12:01.175Z,8.4
2023-02-17T01:15:01.145Z,8.4
2023-02-17T01:18:01.130Z,8.4
2023-02-17T01:21:01.081Z,8.4
2023-02-17T01:24:01.133Z,8.4
2023-02-17T01:27:01.149Z,8.4
2023-02-17T01:30:01.286Z,8.4
2023-02-17T01:33:01.137Z,8.3
2023-02-17T01:36:01.089Z,8.3
2023-02-17T01:39:01.160Z,8.3
2023-02-17T01:42:01.049Z,8.3
2023-02-17T01:45:01.135Z,8.3
2023-02-17T01:48:01.188Z,8.3
2023-02-17T01:51:01.078Z,8.3
2023-02-17T01:54:01.108Z,8.4
2023-02-17T01:57:01.107Z,8.4
2023-02-17T02:00:01.132Z,8.4
2023-02-17T02:03:01.349Z,8.4
2023-02-17T02:06:01.265Z,8.4
2023-02-17T02:09:01.133Z,8.3
2023-02-17T02:12:01.098Z,8.3
2023-02-17T02:15:01.168Z,8.3
2023-02-17T02:18:01.153Z,8.3
2023-02-17T02:21:01.093Z,8.3
2023-02-17T02:24:01.091Z,8.3
2023-02-17T02:27:01.145Z,8.3
2023-02-17T02:30:01.230Z,8.3
2023-02-17T02:33:01.119Z,8.3
2023-02-17T02:36:01.138Z,8.3
2023-02-17T02:39:01.102Z,8.3
2023-02-17T02:42:01.099Z,8.3
2023-02-17T02:45:01.127Z,8.3
2023-02-17T02:48:01.083Z,8.3
2023-02-17T02:51:01.110Z,8.3
2023-02-17T02:54:01.092Z,8.3
2023-02-17T02:57:01.169Z,8.3
2023-02-17T03:00:01.131Z,8.3
2023-02-17T03:03:01.128Z,8.3
2023-02-17T03:06:01.188Z,8.3
2023-02-17T03:09:01.105Z,8.3
2023-02-17T03:12:01.160Z,8.4
2023-02-17T03:15:01.226Z,8.4
2023-02-17T03:18:01.131Z,8.4
2023-02-17T03:21:01.112Z,8.4
2023-02-17T03:24:01.154Z,8.4
2023-02-17T03:27:01.113Z,8.4
2023-02-17T03:30:01.247Z,8.4
2023-02-17T03:33:01.163Z,8.4
2023-02-17T03:36:01.137Z,8.4
2023-02-17T03:39:01.184Z,8.4
2023-02-17T03:42:01.086Z,8.5
2023-02-17T03:45:01.167Z,8.5
2023-02-17T03:48:01.163Z,8.5
2023-02-17T03:51:01.102Z,8.5
2023-02-17T03:54:01.089Z,8.5
2023-02-17T03:57:01.210Z,8.5
2023-02-17T04:00:01.142Z,8.5
2023-02-17T04:03:01.202Z,8.5
2023-02-17T04:06:01.148Z,8.5
2023-02-17T04:09:01.105Z,8.5
2023-02-17T04:12:01.169Z,8.5
2023-02-17T04:15:01.128Z,8.6
2023-02-17T04:18:01.145Z,8.6
2023-02-17T04:21:01.098Z,8.6
2023-02-17T04:24:01.111Z,8.6
2023-02-17T04:27:01.119Z,8.6
2023-02-17T04:30:01.273Z,8.6
2023-02-17T04:33:01.148Z,8.6
2023-02-17T04:36:01.141Z,8.6
2023-02-17T04:39:01.132Z,8.6
2023-02-17T04:42:01.194Z,8.6
2023-02-17T04:45:01.135Z,8.6
2023-02-17T04:48:01.156Z,8.6
2023-02-17T04:51:01.225Z,8.6
2023-02-17T04:54:01.129Z,8.6
2023-02-17T04:57:01.140Z,8.6
2023-02-17T05:00:01.115Z,8.6
2023-02-17T05:03:01.225Z,8.6
2023-02-17T05:06:01.234Z,8.6
2023-02-17T05:09:01.130Z,8.6
2023-02-17T05:12:01.100Z,8.6
2023-02-17T05:15:01.125Z,8.6
2023-02-17T05:18:01.094Z,8.7
2023-02-17T05:21:01.137Z,8.7
2023-02-17T05:24:01.127Z,8.7
2023-02-17T05:27:01.160Z,8.7
2023-02-17T05:30:01.191Z,8.7
2023-02-17T05:33:01.131Z,8.7
2023-02-17T05:36:01.113Z,8.7
2023-02-17T05:39:01.087Z,8.7
2023-02-17T05:42:01.139Z,8.7
2023-02-17T05:45:01.111Z,8.8
2023-02-17T05:48:01.252Z,8.8
2023-02-17T05:51:01.152Z,8.8
2023-02-17T05:54:01.150Z,8.8
2023-02-17T05:57:01.091Z,8.8
2023-02-17T06:00:01.242Z,8.8
2023-02-17T06:03:01.218Z,8.8
2023-02-17T06:06:01.297Z,8.9
2023-02-17T06:09:01.105Z,8.9
2023-02-17T06:12:01.158Z,8.9
2023-02-17T06:15:01.141Z,8.9
2023-02-17T06:18:01.143Z,8.9
2023-02-17T06:21:01.092Z,8.9
2023-02-17T06:24:01.085Z,8.9
2023-02-17T06:27:01.147Z,8.9
2023-02-17T06:30:01.306Z,8.9
2023-02-17T06:33:01.266Z,8.9
2023-02-17T06:36:01.136Z,8.9
2023-02-17T06:39:01.202Z,8.9
2023-02-17T06:42:01.133Z,8.9
2023-02-17T06:45:01.171Z,8.9
2023-02-17T06:48:01.171Z,8.9
2023-02-17T06:51:01.225Z,8.9
2023-02-17T06:54:01.165Z,8.9
2023-02-17T06:57:01.219Z,8.9
2023-02-17T07:00:01.184Z,8.9
2023-02-17T07:03:01.647Z,8.9
2023-02-17T07:06:01.189Z,8.9
2023-02-17T07:09:01.152Z,8.9
2023-02-17T07:12:01.135Z,9.2
2023-02-17T07:15:01.156Z,9.2
2023-02-17T07:18:01.224Z,9.2
2023-02-17T07:21:01.185Z,9.2
2023-02-17T07:24:01.101Z,9.3
2023-02-17T07:27:01.232Z,9.3
2023-02-17T07:30:01.240Z,9.3
2023-02-17T07:33:01.205Z,9.3
2023-02-17T07:36:01.197Z,9.3
2023-02-17T07:39:01.179Z,9.3
2023-02-17T07:42:01.259Z,9.5
2023-02-17T07:45:01.119Z,9.5
2023-02-17T07:48:01.219Z,9.5
2023-02-17T07:51:01.180Z,9.5
2023-02-17T07:54:01.276Z,9.5
2023-02-17T07:57:01.143Z,9.5
2023-02-17T08:00:01.401Z,9.5
2023-02-17T08:03:01.190Z,9.6
2023-02-17T08:06:01.165Z,9.6
2023-02-17T08:09:01.161Z,9.6
2023-02-17T08:12:01.128Z,9.6
2023-02-17T08:15:01.187Z,9.6
2023-02-17T08:18:01.182Z,9.6
2023-02-17T08:21:01.237Z,9.6
2023-02-17T08:24:01.128Z,9.6
2023-02-17T08:27:01.844Z,9.9
2023-02-17T08:30:01.327Z,9.9
2023-02-17T08:33:01.223Z,9.9
2023-02-17T08:36:01.243Z,9.9
2023-02-17T08:39:01.141Z,9.9
2023-02-17T08:42:01.278Z,9.9
2023-02-17T08:45:01.164Z,9.9
2023-02-17T08:48:01.215Z,9.9
2023-02-17T08:51:01.256Z,9.9
2023-02-17T08:54:01.180Z,9.9
2023-02-17T08:57:01.206Z,10.2
2023-02-17T09:00:01.308Z,10.2
2023-02-17T09:03:01.285Z,10.2
2023-02-17T09:06:01.234Z,10.2
2023-02-17T09:09:01.216Z,10.2
2023-02-17T09:12:01.177Z,10.2
2023-02-17T09:15:01.341Z,10.4
2023-02-17T09:18:01.198Z,10.4
2023-02-17T09:21:01.220Z,10.4
2023-02-17T09:24:01.385Z,10.4
2023-02-17T09:27:01.231Z,10.4
2023-02-17T09:30:01.483Z,10.4
2023-02-17T09:33:01.408Z,10.4
2023-02-17T09:36:01.250Z,10.4
2023-02-17T09:39:01.385Z,10.4
2023-02-17T09:42:01.215Z,10.4
2023-02-17T09:45:01.274Z,10.4
2023-02-17T09:48:01.278Z,10.4
2023-02-17T09:51:01.325Z,10.4
2023-02-17T09:54:01.313Z,10.4
2023-02-17T09:57:01.218Z,10.4
2023-02-17T10:00:01.459Z,10.4
2023-02-17T10:03:01.226Z,10.4
2023-02-17T10:06:01.119Z,10.4
2023-02-17T10:09:01.137Z,10.4
2023-02-17T10:12:01.221Z,10.9
2023-02-17T10:15:01.356Z,10.9
2023-02-17T10:18:01.198Z,10.9
2023-02-17T10:21:01.207Z,10.9
2023-02-17T10:24:01.159Z,10.9
2023-02-17T10:27:01.268Z,11
2023-02-17T10:30:01.321Z,11
2023-02-17T10:33:01.254Z,11
2023-02-17T10:36:01.165Z,11.1
2023-02-17T10:39:01.240Z,11.1
2023-02-17T10:42:01.141Z,11.2
2023-02-17T10:45:01.516Z,11.2
2023-02-17T10:48:01.194Z,11.2
2023-02-17T10:51:01.122Z,11.2
2023-02-17T10:54:01.262Z,11.2
2023-02-17T10:57:01.246Z,11.2
2023-02-17T11:00:01.253Z,11.2
2023-02-17T11:03:01.219Z,11.2
2023-02-17T11:06:01.197Z,11.2
2023-02-17T11:09:01.125Z,11.2
2023-02-17T11:12:01.188Z,11.6
2023-02-17T11:15:01.138Z,11.6
2023-02-17T11:18:01.165Z,11.7
2023-02-17T11:21:01.132Z,11.7
2023-02-17T11:24:01.180Z,11.7
2023-02-17T11:27:01.364Z,11.8
2023-02-17T11:30:01.327Z,11.8
2023-02-17T11:33:01.245Z,11.8
2023-02-17T11:36:01.228Z,11.8
2023-02-17T11:39:01.122Z,11.8
2023-02-17T11:42:01.350Z,11.8
2023-02-17T11:45:01.120Z,11.8
2023-02-17T11:48:01.297Z,12.2
2023-02-17T11:51:01.181Z,12.2
2023-02-17T11:54:01.306Z,12.2
2023-02-17T11:57:01.155Z,12.2
2023-02-17T12:00:01.638Z,12.2
2023-02-17T12:03:01.254Z,12.2
2023-02-17T12:06:01.161Z,12.2
2023-02-17T12:09:01.203Z,12.2
2023-02-17T12:12:01.143Z,12.6
2023-02-17T12:15:01.162Z,12.6
2023-02-17T12:18:01.536Z,12.6
2023-02-17T12:21:01.138Z,12.6
2023-02-17T12:24:01.143Z,12.8
2023-02-17T12:27:01.803Z,12.8
2023-02-17T12:30:01.240Z,12.8
2023-02-17T12:33:01.206Z,12.8
2023-02-17T12:36:01.173Z,12.8
2023-02-17T12:39:01.195Z,12.8
2023-02-17T12:42:01.196Z,12.8
2023-02-17T12:45:01.185Z,12.8
2023-02-17T12:48:01.181Z,12.8
2023-02-17T12:51:01.223Z,12.8
2023-02-17T12:54:01.820Z,13.2
2023-02-17T12:57:01.200Z,13.3
2023-02-17T13:00:01.238Z,13.3
2023-02-17T13:03:01.296Z,13.3
2023-02-17T13:06:01.252Z,13.3
2023-02-17T13:09:01.172Z,13.3
2023-02-17T13:12:01.173Z,13.3
2023-02-17T13:15:01.207Z,13.3
2023-02-17T13:18:01.278Z,13.3
2023-02-17T13:21:01.196Z,13.3
2023-02-17T13:24:01.169Z,13.3
2023-02-17T13:27:01.190Z,13.4
2023-02-17T13:30:01.263Z,13.4
2023-02-17T13:33:01.232Z,13.4
2023-02-17T13:36:01.195Z,13.4
2023-02-17T13:39:01.202Z,13.4
2023-02-17T13:42:01.239Z,13.4
2023-02-17T13:45:01.225Z,13.4
2023-02-17T13:48:01.420Z,13.4
2023-02-17T13:51:01.141Z,13.4
2023-02-17T13:54:01.213Z,13.2
2023-02-17T13:57:01.153Z,13.2
2023-02-17T14:00:01.285Z,13.2
2023-02-17T14:03:01.225Z,13.2
2023-02-17T14:06:01.263Z,13.2
2023-02-17T14:09:01.169Z,13.2
2023-02-17T14:12:01.243Z,13.1
2023-02-17T14:15:01.116Z,13.1
2023-02-17T14:18:01.208Z,13.1
2023-02-17T14:21:01.222Z,13.1
2023-02-17T14:24:01.252Z,13.1
2023-02-17T14:27:01.122Z,13.1
2023-02-17T14:30:04.481Z,13.1
2023-02-17T14:33:01.228Z,13.1
2023-02-17T14:36:01.200Z,13.1
2023-02-17T14:39:01.151Z,12.7
2023-02-17T14:42:01.152Z,12.7
2023-02-17T14:45:01.277Z,12.7
2023-02-17T14:48:01.183Z,12.7
2023-02-17T14:51:01.226Z,12.7
2023-02-17T14:54:01.192Z,12.7
2023-02-17T14:57:01.297Z,12.7
2023-02-17T15:00:01.241Z,12.7
2023-02-17T15:03:01.318Z,12.5
2023-02-17T15:06:01.122Z,12.5
2023-02-17T15:09:01.245Z,12.4
2023-02-17T15:12:01.231Z,12.4
2023-02-17T15:15:01.188Z,12.4
2023-02-17T15:18:01.416Z,12.4
2023-02-17T15:21:01.154Z,12.4
2023-02-17T15:24:01.254Z,12.4
2023-02-17T15:27:01.141Z,12.3
2023-02-17T15:30:01.553Z,12.3
2023-02-17T15:33:01.120Z,12.2
2023-02-17T15:36:01.201Z,12.2
2023-02-17T15:39:01.230Z,12.2
2023-02-17T15:42:01.242Z,12.2
2023-02-17T15:45:01.120Z,12.2
2023-02-17T15:48:01.185Z,12.2
2023-02-17T15:51:01.229Z,12.2
2023-02-17T15:54:01.117Z,12.2
2023-02-17T15:57:01.147Z,12.2
2023-02-17T16:00:01.153Z,12.2
2023-02-17T16:03:01.250Z,11.8
2023-02-17T16:06:01.173Z,11.8
2023-02-17T16:09:01.216Z,11.8
2023-02-17T16:12:01.173Z,11.8
2023-02-17T16:15:01.288Z,11.8
2023-02-17T16:18:01.163Z,11.8
2023-02-17T16:21:01.180Z,11.8
2023-02-17T16:24:01.178Z,11.8
2023-02-17T16:27:01.152Z,11.8
2023-02-17T16:30:01.489Z,11.7
2023-02-17T16:33:01.288Z,11.7
2023-02-17T16:36:01.106Z,11.7
2023-02-17T16:39:01.144Z,11.7
2023-02-17T16:42:01.130Z,11.7
2023-02-17T16:45:01.165Z,11.7
2023-02-17T16:48:01.216Z,11.7
2023-02-17T16:51:01.202Z,11.7
2023-02-17T16:54:01.115Z,11.7
2023-02-17T16:57:01.372Z,11.7
2023-02-17T17:00:01.188Z,11.7
2023-02-17T17:03:01.197Z,11.7
2023-02-17T17:06:01.128Z,11.7
2023-02-17T17:09:01.086Z,11.7
2023-02-17T17:12:01.129Z,11.7
2023-02-17T17:15:01.113Z,11.7
2023-02-17T17:18:01.163Z,11.7
2023-02-17T17:21:01.115Z,11.7
2023-02-17T17:24:01.233Z,11.3
2023-02-17T17:27:01.161Z,11.3
2023-02-17T17:30:01.542Z,11.3
2023-02-17T17:33:01.157Z,11.3
2023-02-17T17:36:01.087Z,11.3
2023-02-17T17:39:01.148Z,11.3
2023-02-17T17:42:01.075Z,11.3
2023-02-17T17:45:01.140Z,11.3
2023-02-17T17:48:01.229Z,11.2
2023-02-17T17:51:01.214Z,11.2
2023-02-17T17:54:01.180Z,11.2
2023-02-17T17:57:01.219Z,11.2
2023-02-17T18:00:01.192Z,11.2
2023-02-17T18:03:01.212Z,11.2
2023-02-17T18:06:01.154Z,11.2
2023-02-17T18:09:01.210Z,11.2
2023-02-17T18:12:01.173Z,11.2
2023-02-17T18:15:01.201Z,11.2
2023-02-17T18:18:01.198Z,11.2
2023-02-17T18:21:01.211Z,11.2
2023-02-17T18:24:01.193Z,11.3
2023-02-17T18:27:01.125Z,11.3
2023-02-17T18:30:01.362Z,11.3
2023-02-17T18:33:01.187Z,11.3
2023-02-17T18:36:01.159Z,11.2
2023-02-17T18:39:01.222Z,11.2
2023-02-17T18:42:01.054Z,11.2
2023-02-17T18:45:01.170Z,11.2
2023-02-17T18:48:01.204Z,11
2023-02-17T18:51:01.149Z,11
2023-02-17T18:54:01.140Z,11
2023-02-17T18:57:01.167Z,11
2023-02-17T19:00:01.108Z,11
2023-02-17T19:03:01.200Z,11
2023-02-17T19:06:01.107Z,11
2023-02-17T19:09:01.144Z,11
2023-02-17T19:12:01.123Z,11
2023-02-17T19:15:01.050Z,10.8
2023-02-17T19:18:01.269Z,10.8
2023-02-17T19:21:01.080Z,10.8
2023-02-17T19:24:01.120Z,10.8
2023-02-17T19:27:01.097Z,10.8
2023-02-17T19:30:01.230Z,10.7
2023-02-17T19:33:01.142Z,10.7
2023-02-17T19:36:01.143Z,10.7
2023-02-17T19:39:01.115Z,10.7
2023-02-17T19:42:01.148Z,10.7
2023-02-17T19:45:01.079Z,10.5
2023-02-17T19:48:01.136Z,10.5
2023-02-17T19:51:01.161Z,10.5
2023-02-17T19:54:01.104Z,10.5
2023-02-17T19:57:01.126Z,10.5
2023-02-17T20:00:01.125Z,10.5
2023-02-17T20:03:01.168Z,10.5
2023-02-17T20:06:01.243Z,10.5
2023-02-17T20:09:01.152Z,10.5
2023-02-17T20:12:01.096Z,10.1
2023-02-17T20:15:01.158Z,10.1
2023-02-17T20:18:01.173Z,10.1
2023-02-17T20:21:01.104Z,10.1
2023-02-17T20:24:01.204Z,9.8
2023-02-17T20:27:01.104Z,9.8
2023-02-17T20:30:01.930Z,9.8
2023-02-17T20:33:01.573Z,9.8
2023-02-17T20:36:01.637Z,9.8
2023-02-17T20:39:01.637Z,9.5
2023-02-17T20:42:01.615Z,9.5
2023-02-17T20:45:01.823Z,9.5
2023-02-17T20:48:01.153Z,9.5
2023-02-17T20:51:01.116Z,9.5
2023-02-17T20:54:01.153Z,9.5
2023-02-17T20:57:01.227Z,9.5
2023-02-17T21:00:01.126Z,9.2
2023-02-17T21:03:01.269Z,9.2
2023-02-17T21:06:01.100Z,9.2
2023-02-17T21:09:01.153Z,9.2
2023-02-17T21:12:01.079Z,9.2
2023-02-17T21:15:01.134Z,9.2
2023-02-17T21:18:01.178Z,9.2
2023-02-17T21:21:01.108Z,9.2
2023-02-17T21:24:01.141Z,8.8
2023-02-17T21:27:01.081Z,8.8
2023-02-17T21:30:01.275Z,8.8
2023-02-17T21:33:01.388Z,8.8
2023-02-17T21:36:01.129Z,8.8
2023-02-17T21:39:01.113Z,8.8
2023-02-17T21:42:01.104Z,8.8
2023-02-17T21:45:01.308Z,8.8
2023-02-17T21:48:01.092Z,8.8
2023-02-17T21:51:01.142Z,8.8
2023-02-17T21:54:01.153Z,8.8
2023-02-17T21:57:04.315Z,8.8
2023-02-17T22:00:01.104Z,8.4
2023-02-17T22:03:01.157Z,8.4
2023-02-17T22:06:01.107Z,8.4
2023-02-17T22:09:01.110Z,8.4
2023-02-17T22:12:01.110Z,8.3
2023-02-17T22:15:01.337Z,8.3
2023-02-17T22:18:01.602Z,8.3
2023-02-17T22:21:01.089Z,8.3
2023-02-17T22:24:01.178Z,8.3
2023-02-17T22:27:01.149Z,8.3
2023-02-17T22:30:01.191Z,8.2
2023-02-17T22:33:01.169Z,8.2
2023-02-17T22:36:01.103Z,8.2
2023-02-17T22:39:01.084Z,8.2
2023-02-17T22:42:01.139Z,8.2
2023-02-17T22:45:01.103Z,8.2
2023-02-17T22:48:01.122Z,8.2
2023-02-17T22:51:01.184Z,8.2
2023-02-17T22:54:01.092Z,8.2
2023-02-17T22:57:01.186Z,8.2
2023-02-17T23:00:01.599Z,8.2
2023-02-17T23:03:01.207Z,8.2
2023-02-17T23:06:01.227Z,8.2
2023-02-17T23:09:01.180Z,8.2
2023-02-17T23:12:01.061Z,7.9
2023-02-17T23:15:01.120Z,7.9
2023-02-17T23:18:01.122Z,7.9
2023-02-17T23:21:01.116Z,7.9
2023-02-17T23:24:01.131Z,7.9
2023-02-17T23:27:01.125Z,7.9
2023-02-17T23:30:01.235Z,7.9
2023-02-17T23:33:01.197Z,7.9
2023-02-17T23:36:01.140Z,7.9
2023-02-17T23:39:01.139Z,7.9
2023-02-17T23:42:01.138Z,7.9
2023-02-17T23:45:01.111Z,7.9
2023-02-17T23:48:01.143Z,7.9
2023-02-17T23:51:01.138Z,7.9
2023-02-17T23:54:01.063Z,7.9
2023-02-17T23:57:01.129Z,7.9
